sensor_id;sensor_type;location;lat;lon;timestamp;pressure;altitude;pressure_sealevel;temperature;humidity
84990;BME280;75307;53.836;10.476;2024-03-02T00:01:36;100378.41;;;7.13;76.44
84990;BME280;75307;53.836;10.476;2024-03-02T00:03:38;100376.72;;;7.12;76.49
84990;BME280;75307;53.836;10.476;2024-03-02T00:05:41;100367.16;;;7.11;76.61
84990;BME280;75307;53.836;10.476;2024-03-02T00:07:41;100377.56;;;7.12;76.58
84990;BME280;75307;53.836;10.476;2024-03-02T00:09:44;100371.50;;;7.12;76.56
84990;BME280;75307;53.836;10.476;2024-03-02T00:11:45;100368.06;;;7.10;76.78
84990;BME280;75307;53.836;10.476;2024-03-02T00:13:46;100367.22;;;7.08;76.47
84990;BME280;75307;53.836;10.476;2024-03-02T00:15:50;100369.84;;;7.08;76.54
84990;BME280;75307;53.836;10.476;2024-03-02T00:17:54;100365.59;;;7.04;76.58
84990;BME280;75307;53.836;10.476;2024-03-02T00:19:57;100367.34;;;7.03;76.74
84990;BME280;75307;53.836;10.476;2024-03-02T00:22:00;100368.19;;;7.04;76.86
84990;BME280;75307;53.836;10.476;2024-03-02T00:24:08;100367.38;;;7.02;76.97
84990;BME280;75307;53.836;10.476;2024-03-02T00:26:19;100360.44;;;7.01;76.99
84990;BME280;75307;53.836;10.476;2024-03-02T00:28:21;100356.13;;;7.00;76.85
84990;BME280;75307;53.836;10.476;2024-03-02T00:30:56;100349.22;;;6.97;77.00
84990;BME280;75307;53.836;10.476;2024-03-02T00:33:00;100352.78;;;6.93;77.15
84990;BME280;75307;53.836;10.476;2024-03-02T00:35:01;100353.66;;;6.93;77.16
84990;BME280;75307;53.836;10.476;2024-03-02T00:37:02;100352.78;;;6.93;77.54
84990;BME280;75307;53.836;10.476;2024-03-02T00:39:04;100347.66;;;6.90;77.34
84990;BME280;75307;53.836;10.476;2024-03-02T00:41:08;100350.28;;;6.88;77.29
84990;BME280;75307;53.836;10.476;2024-03-02T00:43:39;100349.38;;;6.89;77.13
84990;BME280;75307;53.836;10.476;2024-03-02T00:45:41;100349.38;;;6.89;77.60
84990;BME280;75307;53.836;10.476;2024-03-02T00:47:43;100342.38;;;6.91;77.34
84990;BME280;75307;53.836;10.476;2024-03-02T00:49:47;100340.69;;;6.90;77.59
84990;BME280;75307;53.836;10.476;2024-03-02T00:51:48;100338.94;;;6.89;77.40
84990;BME280;75307;53.836;10.476;2024-03-02T00:53:51;100335.50;;;6.87;77.44
84990;BME280;75307;53.836;10.476;2024-03-02T00:55:56;100337.31;;;6.85;77.45
84990;BME280;75307;53.836;10.476;2024-03-02T00:57:56;100338.25;;;6.83;77.82
84990;BME280;75307;53.836;10.476;2024-03-02T00:59:58;100333.06;;;6.80;77.59
84990;BME280;75307;53.836;10.476;2024-03-02T01:01:59;100338.28;;;6.81;77.91
84990;BME280;75307;53.836;10.476;2024-03-02T01:04:00;100333.94;;;6.80;77.73
84990;BME280;75307;53.836;10.476;2024-03-02T01:06:04;100334.88;;;6.78;77.67
84990;BME280;75307;53.836;10.476;2024-03-02T01:08:05;100331.47;;;6.76;77.53
84990;BME280;75307;53.836;10.476;2024-03-02T01:10:08;100323.66;;;6.74;78.17
84990;BME280;75307;53.836;10.476;2024-03-02T01:12:10;100328.88;;;6.74;78.25
84990;BME280;75307;53.836;10.476;2024-03-02T01:14:12;100332.38;;;6.73;78.12
84990;BME280;75307;53.836;10.476;2024-03-02T01:16:14;100331.53;;;6.73;77.85
84990;BME280;75307;53.836;10.476;2024-03-02T01:18:16;100334.13;;;6.73;78.12
84990;BME280;75307;53.836;10.476;2024-03-02T01:20:18;100336.81;;;6.71;78.43
84990;BME280;75307;53.836;10.476;2024-03-02T01:22:21;100333.34;;;6.69;78.25
84990;BME280;75307;53.836;10.476;2024-03-02T01:24:25;100329.94;;;6.67;78.13
84990;BME280;75307;53.836;10.476;2024-03-02T01:26:27;100337.75;;;6.67;77.99
84990;BME280;75307;53.836;10.476;2024-03-02T01:28:29;100332.56;;;6.65;78.03
84990;BME280;75307;53.836;10.476;2024-03-02T01:30:31;100333.44;;;6.66;78.33
84990;BME280;75307;53.836;10.476;2024-03-02T01:32:31;100342.97;;;6.67;78.27
84990;BME280;75307;53.836;10.476;2024-03-02T01:34:33;100337.72;;;6.68;78.37
84990;BME280;75307;53.836;10.476;2024-03-02T01:36:34;100334.31;;;6.65;78.51
84990;BME280;75307;53.836;10.476;2024-03-02T01:38:37;100337.75;;;6.67;78.28
84990;BME280;75307;53.836;10.476;2024-03-02T01:40:39;100328.22;;;6.66;78.17
84990;BME280;75307;53.836;10.476;2024-03-02T01:42:41;100339.50;;;6.66;78.25
84990;BME280;75307;53.836;10.476;2024-03-02T01:44:44;100332.59;;;6.64;78.24
84990;BME280;75307;53.836;10.476;2024-03-02T01:46:46;100331.75;;;6.63;78.68
84990;BME280;75307;53.836;10.476;2024-03-02T01:48:48;100325.72;;;6.60;78.70
84990;BME280;75307;53.836;10.476;2024-03-02T01:50:50;100327.53;;;6.58;78.63
84990;BME280;75307;53.836;10.476;2024-03-02T01:52:52;100325.81;;;6.57;78.90
84990;BME280;75307;53.836;10.476;2024-03-02T01:54:55;100321.44;;;6.57;78.54
84990;BME280;75307;53.836;10.476;2024-03-02T01:56:56;100323.22;;;6.57;78.88
84990;BME280;75307;53.836;10.476;2024-03-02T01:58:58;100319.81;;;6.53;78.63
84990;BME280;75307;53.836;10.476;2024-03-02T02:01:00;100317.25;;;6.52;78.94
84990;BME280;75307;53.836;10.476;2024-03-02T02:03:01;100314.63;;;6.50;78.89
84990;BME280;75307;53.836;10.476;2024-03-02T02:05:03;100316.34;;;6.53;78.37
84990;BME280;75307;53.836;10.476;2024-03-02T02:07:06;100307.56;;;6.55;79.22
84990;BME280;75307;53.836;10.476;2024-03-02T02:09:07;100305.84;;;6.54;78.91
84990;BME280;75307;53.836;10.476;2024-03-02T02:11:10;100306.75;;;6.53;78.45
84990;BME280;75307;53.836;10.476;2024-03-02T02:13:13;100308.50;;;6.53;78.79
84990;BME280;75307;53.836;10.476;2024-03-02T02:15:28;100312.06;;;6.49;78.88
84990;BME280;75307;53.836;10.476;2024-03-02T02:17:30;100315.66;;;6.45;78.68
84990;BME280;75307;53.836;10.476;2024-03-02T02:19:30;100310.56;;;6.38;79.48
84990;BME280;75307;53.836;10.476;2024-03-02T02:21:33;100313.19;;;6.37;79.30
84990;BME280;75307;53.836;10.476;2024-03-02T02:23:35;100314.97;;;6.36;79.09
84990;BME280;75307;53.836;10.476;2024-03-02T02:25:37;100318.41;;;6.38;79.27
84990;BME280;75307;53.836;10.476;2024-03-02T02:27:39;100301.84;;;6.39;79.03
84990;BME280;75307;53.836;10.476;2024-03-02T02:29:39;100305.34;;;6.38;79.15
84990;BME280;75307;53.836;10.476;2024-03-02T02:31:42;100305.38;;;6.37;79.21
84990;BME280;75307;53.836;10.476;2024-03-02T02:33:43;100303.72;;;6.34;79.31
84990;BME280;75307;53.836;10.476;2024-03-02T02:35:44;100298.53;;;6.31;79.09
84990;BME280;75307;53.836;10.476;2024-03-02T02:37:48;100296.84;;;6.30;79.37
84990;BME280;75307;53.836;10.476;2024-03-02T02:39:50;100296.84;;;6.30;79.58
84990;BME280;75307;53.836;10.476;2024-03-02T02:41:53;100293.31;;;6.31;79.30
84990;BME280;75307;53.836;10.476;2024-03-02T02:43:53;100302.06;;;6.30;79.53
84990;BME280;75307;53.836;10.476;2024-03-02T02:45:55;100293.31;;;6.31;79.69
84990;BME280;75307;53.836;10.476;2024-03-02T02:47:57;100285.53;;;6.30;79.70
84990;BME280;75307;53.836;10.476;2024-03-02T02:49:59;100295.09;;;6.31;79.32
84990;BME280;75307;53.836;10.476;2024-03-02T02:52:00;100297.66;;;6.32;79.87
84990;BME280;75307;53.836;10.476;2024-03-02T02:54:03;100293.38;;;6.30;79.41
84990;BME280;75307;53.836;10.476;2024-03-02T02:56:05;100296.09;;;6.25;79.27
84990;BME280;75307;53.836;10.476;2024-03-02T02:58:07;100297.88;;;6.23;79.37
84990;BME280;75307;53.836;10.476;2024-03-02T03:00:10;100298.75;;;6.22;79.21
84990;BME280;75307;53.836;10.476;2024-03-02T03:02:14;100302.34;;;6.18;79.61
84990;BME280;75307;53.836;10.476;2024-03-02T03:04:16;100304.13;;;6.16;79.28
84990;BME280;75307;53.836;10.476;2024-03-02T03:06:18;100307.66;;;6.13;79.63
84990;BME280;75307;53.836;10.476;2024-03-02T03:08:20;100298.94;;;6.13;79.82
84990;BME280;75307;53.836;10.476;2024-03-02T03:10:22;100300.75;;;6.11;79.59
84990;BME280;75307;53.836;10.476;2024-03-02T03:12:26;100299.94;;;6.07;79.59
84990;BME280;75307;53.836;10.476;2024-03-02T03:14:28;100300.81;;;6.08;79.58
84990;BME280;75307;53.836;10.476;2024-03-02T03:16:30;100305.16;;;6.09;79.70
84990;BME280;75307;53.836;10.476;2024-03-02T03:18:31;100301.72;;;6.07;80.28
84990;BME280;75307;53.836;10.476;2024-03-02T03:20:32;100301.75;;;6.05;80.12
84990;BME280;75307;53.836;10.476;2024-03-02T03:22:34;100293.16;;;6.00;79.55
84990;BME280;75307;53.836;10.476;2024-03-02T03:24:36;100307.03;;;6.02;80.02
84990;BME280;75307;53.836;10.476;2024-03-02T03:26:39;100301.78;;;6.04;79.71
84990;BME280;75307;53.836;10.476;2024-03-02T03:28:41;100297.38;;;6.06;80.02
84990;BME280;75307;53.836;10.476;2024-03-02T03:30:42;100299.09;;;6.07;80.15
84990;BME280;75307;53.836;10.476;2024-03-02T03:32:43;100296.53;;;6.05;80.06
84990;BME280;75307;53.836;10.476;2024-03-02T03:34:45;100292.22;;;6.03;80.13
84990;BME280;75307;53.836;10.476;2024-03-02T03:36:48;100292.28;;;6.01;79.69
84990;BME280;75307;53.836;10.476;2024-03-02T03:38:50;100292.31;;;6.00;79.57
84990;BME280;75307;53.836;10.476;2024-03-02T03:40:51;100294.94;;;5.98;80.41
84990;BME280;75307;53.836;10.476;2024-03-02T03:42:55;100288.88;;;5.98;79.95
84990;BME280;75307;53.836;10.476;2024-03-02T03:44:57;100298.44;;;5.97;80.25
84990;BME280;75307;53.836;10.476;2024-03-02T03:46:58;100295.84;;;5.97;80.48
84990;BME280;75307;53.836;10.476;2024-03-02T03:49:01;100296.69;;;5.98;80.18
84990;BME280;75307;53.836;10.476;2024-03-02T03:51:04;100295.88;;;5.96;79.96
84990;BME280;75307;53.836;10.476;2024-03-02T03:53:05;100274.38;;;5.83;80.43
84990;BME280;75307;53.836;10.476;2024-03-02T03:55:08;100299.38;;;5.95;79.98
84990;BME280;75307;53.836;10.476;2024-03-02T03:57:09;100301.09;;;5.96;80.51
84990;BME280;75307;53.836;10.476;2024-03-02T03:59:12;100299.28;;;5.98;79.99
84990;BME280;75307;53.836;10.476;2024-03-02T04:01:13;100298.44;;;5.97;79.99
84990;BME280;75307;53.836;10.476;2024-03-02T04:03:15;100299.28;;;5.99;80.40
84990;BME280;75307;53.836;10.476;2024-03-02T04:05:16;100296.69;;;5.98;80.03
84990;BME280;75307;53.836;10.476;2024-03-02T04:07:18;100299.34;;;5.96;80.02
84990;BME280;75307;53.836;10.476;2024-03-02T04:09:19;100296.69;;;5.98;80.65
84990;BME280;75307;53.836;10.476;2024-03-02T04:11:20;100284.66;;;5.90;80.49
84990;BME280;75307;53.836;10.476;2024-03-02T04:13:22;100288.06;;;5.96;80.06
84990;BME280;75307;53.836;10.476;2024-03-02T04:15:25;100288.06;;;5.96;80.28
84990;BME280;75307;53.836;10.476;2024-03-02T04:17:27;100296.78;;;5.95;80.40
84990;BME280;75307;53.836;10.476;2024-03-02T04:19:27;100297.63;;;5.94;80.59
84990;BME280;75307;53.836;10.476;2024-03-02T04:21:29;100296.78;;;5.93;80.59
84990;BME280;75307;53.836;10.476;2024-03-02T04:23:31;100294.19;;;5.93;80.64
84990;BME280;75307;53.836;10.476;2024-03-02T04:25:33;100302.00;;;5.93;80.30
84990;BME280;75307;53.836;10.476;2024-03-02T04:27:35;100294.22;;;5.90;80.42
84990;BME280;75307;53.836;10.476;2024-03-02T04:29:36;100296.78;;;5.93;80.24
84990;BME280;75307;53.836;10.476;2024-03-02T04:31:39;100305.50;;;5.92;80.28
84990;BME280;75307;53.836;10.476;2024-03-02T04:33:40;100300.28;;;5.92;80.12
84990;BME280;75307;53.836;10.476;2024-03-02T04:35:42;100305.50;;;5.92;80.13
84990;BME280;75307;53.836;10.476;2024-03-02T04:37:43;100309.81;;;5.93;80.50
84990;BME280;75307;53.836;10.476;2024-03-02T04:39:45;100312.44;;;5.95;80.77
84990;BME280;75307;53.836;10.476;2024-03-02T04:41:46;100309.81;;;5.95;80.78
84990;BME280;75307;53.836;10.476;2024-03-02T04:43:48;100309.81;;;5.95;80.53
84990;BME280;75307;53.836;10.476;2024-03-02T04:45:50;100306.38;;;5.93;80.73
84990;BME280;75307;53.836;10.476;2024-03-02T04:47:53;100306.38;;;5.93;80.50
84990;BME280;75307;53.836;10.476;2024-03-02T04:49:54;100304.66;;;5.91;80.99
84990;BME280;75307;53.836;10.476;2024-03-02T04:51:55;100296.84;;;5.91;80.76
84990;BME280;75307;53.836;10.476;2024-03-02T04:53:57;100296.84;;;5.91;81.02
84990;BME280;75307;53.836;10.476;2024-03-02T04:55:59;100302.91;;;5.92;80.95
84990;BME280;75307;53.836;10.476;2024-03-02T04:58:39;100297.69;;;5.90;80.77
84990;BME280;75307;53.836;10.476;2024-03-02T05:00:41;100295.97;;;5.89;80.99
84990;BME280;75307;53.836;10.476;2024-03-02T05:02:43;100298.59;;;5.89;80.48
84990;BME280;75307;53.836;10.476;2024-03-02T05:04:46;100258.25;;;5.65;80.46
84990;BME280;75307;53.836;10.476;2024-03-02T05:06:48;100295.09;;;5.90;80.47
84990;BME280;75307;53.836;10.476;2024-03-02T05:08:52;100291.63;;;5.91;81.21
84990;BME280;75307;53.836;10.476;2024-03-02T05:10:53;100293.34;;;5.91;81.14
84990;BME280;75307;53.836;10.476;2024-03-02T05:12:55;100289.88;;;5.89;80.73
84990;BME280;75307;53.836;10.476;2024-03-02T05:14:57;100279.53;;;5.84;81.05
84990;BME280;75307;53.836;10.476;2024-03-02T05:16:59;100290.78;;;5.89;80.65
84990;BME280;75307;53.836;10.476;2024-03-02T05:19:01;100286.41;;;5.88;80.47
84990;BME280;75307;53.836;10.476;2024-03-02T05:21:03;100283.81;;;5.88;80.82
84990;BME280;75307;53.836;10.476;2024-03-02T05:23:05;100290.78;;;5.88;80.67
84990;BME280;75307;53.836;10.476;2024-03-02T05:25:07;100285.59;;;5.86;80.55
84990;BME280;75307;53.836;10.476;2024-03-02T05:27:08;100290.81;;;5.86;81.34
84990;BME280;75307;53.836;10.476;2024-03-02T05:29:09;100279.53;;;5.84;80.84
84990;BME280;75307;53.836;10.476;2024-03-02T05:31:11;100284.72;;;5.87;80.90
84990;BME280;75307;53.836;10.476;2024-03-02T05:33:16;100284.72;;;5.87;81.41
84990;BME280;75307;53.836;10.476;2024-03-02T05:35:17;100289.03;;;5.88;81.07
84990;BME280;75307;53.836;10.476;2024-03-02T05:37:21;100285.66;;;5.85;80.66
84990;BME280;75307;53.836;10.476;2024-03-02T05:39:21;100295.13;;;5.87;80.81
84990;BME280;75307;53.836;10.476;2024-03-02T05:41:23;100291.69;;;5.87;80.67
84990;BME280;75307;53.836;10.476;2024-03-02T05:43:25;100291.72;;;5.85;80.84
84990;BME280;75307;53.836;10.476;2024-03-02T05:45:26;100291.72;;;5.84;81.04
84990;BME280;75307;53.836;10.476;2024-03-02T05:47:28;100297.81;;;5.84;81.00
84990;BME280;75307;53.836;10.476;2024-03-02T05:49:30;100292.63;;;5.83;81.04
84990;BME280;75307;53.836;10.476;2024-03-02T05:51:30;100280.53;;;5.79;81.37
84990;BME280;75307;53.836;10.476;2024-03-02T05:53:33;100296.94;;;5.85;81.42
84990;BME280;75307;53.836;10.476;2024-03-02T05:55:38;100295.19;;;5.84;80.93
84990;BME280;75307;53.836;10.476;2024-03-02T05:57:40;100301.31;;;5.83;81.33
84990;BME280;75307;53.836;10.476;2024-03-02T05:59:56;100299.59;;;5.82;81.45
84990;BME280;75307;53.836;10.476;2024-03-02T06:01:58;100291.72;;;5.84;81.46
84990;BME280;75307;53.836;10.476;2024-03-02T06:03:59;100293.44;;;5.86;80.99
84990;BME280;75307;53.836;10.476;2024-03-02T06:06:01;100293.47;;;5.85;80.87
84990;BME280;75307;53.836;10.476;2024-03-02T06:08:03;100303.06;;;5.83;81.58
84990;BME280;75307;53.836;10.476;2024-03-02T06:10:07;100301.31;;;5.83;81.70
84990;BME280;75307;53.836;10.476;2024-03-02T06:12:09;100299.56;;;5.84;81.10
84990;BME280;75307;53.836;10.476;2024-03-02T06:14:11;100307.31;;;5.87;81.66
84990;BME280;75307;53.836;10.476;2024-03-02T06:16:13;100298.59;;;5.88;81.29
84990;BME280;75307;53.836;10.476;2024-03-02T06:18:15;100301.22;;;5.88;81.10
84990;BME280;75307;53.836;10.476;2024-03-02T06:20:16;100306.47;;;5.86;80.92
84990;BME280;75307;53.836;10.476;2024-03-02T06:22:18;100298.66;;;5.86;81.62
84990;BME280;75307;53.836;10.476;2024-03-02T06:24:21;100307.31;;;5.87;81.14
84990;BME280;75307;53.836;10.476;2024-03-02T06:26:24;100309.03;;;5.88;81.28
84990;BME280;75307;53.836;10.476;2024-03-02T06:28:26;100315.09;;;5.88;81.11
84990;BME280;75307;53.836;10.476;2024-03-02T06:30:27;100319.47;;;5.88;81.61
84990;BME280;75307;53.836;10.476;2024-03-02T06:32:28;100318.63;;;5.87;81.17
84990;BME280;75307;53.836;10.476;2024-03-02T06:34:30;100318.56;;;5.89;81.05
84990;BME280;75307;53.836;10.476;2024-03-02T06:36:32;100328.19;;;5.87;81.54
84990;BME280;75307;53.836;10.476;2024-03-02T06:38:34;100329.03;;;5.87;81.33
84990;BME280;75307;53.836;10.476;2024-03-02T06:40:35;100322.06;;;5.88;81.02
84990;BME280;75307;53.836;10.476;2024-03-02T06:42:40;100319.56;;;5.85;81.21
84990;BME280;75307;53.836;10.476;2024-03-02T06:44:40;100324.69;;;5.89;81.61
84990;BME280;75307;53.836;10.476;2024-03-02T06:46:42;100319.41;;;5.91;81.74
84990;BME280;75307;53.836;10.476;2024-03-02T06:48:43;100317.69;;;5.91;80.99
84990;BME280;75307;53.836;10.476;2024-03-02T06:50:44;100312.44;;;5.93;81.77
84990;BME280;75307;53.836;10.476;2024-03-02T06:52:45;100310.69;;;5.94;81.19
84990;BME280;75307;53.836;10.476;2024-03-02T06:54:47;100297.69;;;5.92;81.10
84990;BME280;75307;53.836;10.476;2024-03-02T06:56:48;100308.13;;;5.92;80.97
84990;BME280;75307;53.836;10.476;2024-03-02T06:58:51;100301.19;;;5.89;81.37
84990;BME280;75307;53.836;10.476;2024-03-02T07:00:52;100304.69;;;5.88;81.16
84990;BME280;75307;53.836;10.476;2024-03-02T07:02:54;100302.06;;;5.88;81.69
84990;BME280;75307;53.836;10.476;2024-03-02T07:04:56;100309.88;;;5.88;81.23
84990;BME280;75307;53.836;10.476;2024-03-02T07:06:58;100317.72;;;5.88;81.34
84990;BME280;75307;53.836;10.476;2024-03-02T07:08:58;100305.53;;;5.89;81.30
84990;BME280;75307;53.836;10.476;2024-03-02T07:11:00;100311.56;;;5.94;81.27
84990;BME280;75307;53.836;10.476;2024-03-02T07:13:02;100316.66;;;5.99;81.54
84990;BME280;75307;53.836;10.476;2024-03-02T07:15:06;100321.81;;;6.02;81.05
84990;BME280;75307;53.836;10.476;2024-03-02T07:17:37;100323.44;;;6.07;81.50
84990;BME280;75307;53.836;10.476;2024-03-02T07:19:38;100307.00;;;6.04;81.15
84990;BME280;75307;53.836;10.476;2024-03-02T07:21:40;100321.56;;;6.14;81.45
84990;BME280;75307;53.836;10.476;2024-03-02T07:23:42;100326.69;;;6.17;81.44
84990;BME280;75307;53.836;10.476;2024-03-02T07:25:43;100334.44;;;6.22;81.33
84990;BME280;75307;53.836;10.476;2024-03-02T07:27:45;100340.44;;;6.25;80.74
84990;BME280;75307;53.836;10.476;2024-03-02T07:29:46;100344.78;;;6.26;81.25
84990;BME280;75307;53.836;10.476;2024-03-02T07:31:49;100342.97;;;6.30;80.95
84990;BME280;75307;53.836;10.476;2024-03-02T07:33:51;100342.03;;;6.32;80.85
84990;BME280;75307;53.836;10.476;2024-03-02T07:35:53;100342.00;;;6.34;80.98
84990;BME280;75307;53.836;10.476;2024-03-02T07:37:55;100303.38;;;6.11;80.67
84990;BME280;75307;53.836;10.476;2024-03-02T07:39:58;100347.03;;;6.43;80.33
84990;BME280;75307;53.836;10.476;2024-03-02T07:41:59;100350.41;;;6.47;80.54
84990;BME280;75307;53.836;10.476;2024-03-02T07:44:01;100351.19;;;6.52;80.48
84990;BME280;75307;53.836;10.476;2024-03-02T07:46:03;100350.19;;;6.56;80.40
84990;BME280;75307;53.836;10.476;2024-03-02T07:48:06;100349.28;;;6.58;80.08
84990;BME280;75307;53.836;10.476;2024-03-02T07:50:09;100348.28;;;6.64;80.18
84990;BME280;75307;53.836;10.476;2024-03-02T07:52:10;100347.25;;;6.69;80.21
84990;BME280;75307;53.836;10.476;2024-03-02T07:54:12;100342.72;;;6.78;80.17
84990;BME280;75307;53.836;10.476;2024-03-02T07:56:13;100348.63;;;6.84;79.77
84990;BME280;75307;53.836;10.476;2024-03-02T07:58:17;100347.63;;;6.91;79.94
84990;BME280;75307;53.836;10.476;2024-03-02T08:00:20;100339.56;;;6.99;80.10
84990;BME280;75307;53.836;10.476;2024-03-02T08:02:21;100350.69;;;7.07;79.92
84990;BME280;75307;53.836;10.476;2024-03-02T08:04:24;100339.16;;;7.16;79.36
84990;BME280;75307;53.836;10.476;2024-03-02T08:06:26;100341.53;;;7.25;79.32
84990;BME280;75307;53.836;10.476;2024-03-02T08:08:28;100340.47;;;7.32;79.11
84990;BME280;75307;53.836;10.476;2024-03-02T08:10:28;100339.47;;;7.36;78.97
84990;BME280;75307;53.836;10.476;2024-03-02T08:12:30;100345.44;;;7.41;79.20
84990;BME280;75307;53.836;10.476;2024-03-02T08:14:32;100349.66;;;7.47;78.57
84990;BME280;75307;53.836;10.476;2024-03-02T08:16:32;100348.66;;;7.53;79.02
84990;BME280;75307;53.836;10.476;2024-03-02T08:18:34;100334.53;;;7.58;78.71
84990;BME280;75307;53.836;10.476;2024-03-02T08:20:38;100345.78;;;7.62;78.77
84990;BME280;75307;53.836;10.476;2024-03-02T08:22:39;100357.00;;;7.65;78.50
84990;BME280;75307;53.836;10.476;2024-03-02T08:24:41;100361.31;;;7.68;78.22
84990;BME280;75307;53.836;10.476;2024-03-02T08:26:42;100363.88;;;7.69;78.33
84990;BME280;75307;53.836;10.476;2024-03-02T08:28:44;100367.19;;;7.76;78.30
84990;BME280;75307;53.836;10.476;2024-03-02T08:30:45;100368.00;;;7.78;78.23
84990;BME280;75307;53.836;10.476;2024-03-02T08:32:47;100381.88;;;7.80;78.47
84990;BME280;75307;53.836;10.476;2024-03-02T08:34:49;100379.19;;;7.83;77.97
84990;BME280;75307;53.836;10.476;2024-03-02T08:36:52;100374.75;;;7.85;77.96
84990;BME280;75307;53.836;10.476;2024-03-02T08:38:53;100377.34;;;7.87;78.10
84990;BME280;75307;53.836;10.476;2024-03-02T08:40:56;100379.09;;;7.86;77.69
84990;BME280;75307;53.836;10.476;2024-03-02T08:42:57;100383.44;;;7.87;77.65
84990;BME280;75307;53.836;10.476;2024-03-02T08:44:59;100379.84;;;7.91;77.83
84990;BME280;75307;53.836;10.476;2024-03-02T08:47:01;100379.72;;;7.96;77.82
84990;BME280;75307;53.836;10.476;2024-03-02T08:49:04;100389.22;;;7.98;77.85
84990;BME280;75307;53.836;10.476;2024-03-02T08:51:05;100391.75;;;8.02;77.48
84990;BME280;75307;53.836;10.476;2024-03-02T08:53:09;100400.41;;;8.04;77.33
84990;BME280;75307;53.836;10.476;2024-03-02T08:55:11;100391.53;;;8.09;77.59
84990;BME280;75307;53.836;10.476;2024-03-02T08:57:13;100391.38;;;8.14;77.45
84990;BME280;75307;53.836;10.476;2024-03-02T08:59:14;100388.56;;;8.21;77.32
84990;BME280;75307;53.836;10.476;2024-03-02T09:01:17;100391.91;;;8.27;76.95
84990;BME280;75307;53.836;10.476;2024-03-02T09:03:19;100392.56;;;8.33;77.20
84990;BME280;75307;53.836;10.476;2024-03-02T09:05:21;100397.47;;;8.45;76.15
84990;BME280;75307;53.836;10.476;2024-03-02T09:07:22;100393.59;;;8.59;76.27
84990;BME280;75307;53.836;10.476;2024-03-02T09:09:25;100392.31;;;8.72;75.82
84990;BME280;75307;53.836;10.476;2024-03-02T09:11:27;100398.06;;;8.83;75.78
84990;BME280;75307;53.836;10.476;2024-03-02T09:13:29;100385.59;;;8.90;75.77
84990;BME280;75307;53.836;10.476;2024-03-02T09:15:31;100381.13;;;8.93;75.01
84990;BME280;75307;53.836;10.476;2024-03-02T09:17:33;100385.25;;;9.00;75.38
84990;BME280;75307;53.836;10.476;2024-03-02T09:19:34;100378.97;;;9.06;75.26
84990;BME280;75307;53.836;10.476;2024-03-02T09:21:36;100383.09;;;9.13;74.72
84990;BME280;75307;53.836;10.476;2024-03-02T09:23:38;100384.66;;;9.19;74.32
84990;BME280;75307;53.836;10.476;2024-03-02T09:25:42;100384.31;;;9.30;74.14
84990;BME280;75307;53.836;10.476;2024-03-02T09:27:43;100389.88;;;9.45;74.53
84990;BME280;75307;53.836;10.476;2024-03-02T09:29:45;100379.31;;;9.72;73.46
84990;BME280;75307;53.836;10.476;2024-03-02T09:31:46;100382.84;;;9.96;72.92
84990;BME280;75307;53.836;10.476;2024-03-02T09:33:50;100388.81;;;10.24;72.18
84990;BME280;75307;53.836;10.476;2024-03-02T09:35:50;100386.59;;;10.37;71.99
84990;BME280;75307;53.836;10.476;2024-03-02T09:37:52;100386.34;;;10.43;72.38
84990;BME280;75307;53.836;10.476;2024-03-02T09:39:54;100376.22;;;10.56;71.34
84990;BME280;75307;53.836;10.476;2024-03-02T09:41:57;100387.28;;;10.86;71.24
84990;BME280;75307;53.836;10.476;2024-03-02T09:44:00;100385.31;;;11.13;70.40
84990;BME280;75307;53.836;10.476;2024-03-02T09:46:02;100386.38;;;11.29;70.15
84990;BME280;75307;53.836;10.476;2024-03-02T09:48:05;100386.81;;;11.41;69.47
84990;BME280;75307;53.836;10.476;2024-03-02T09:50:08;100379.28;;;11.52;69.25
84990;BME280;75307;53.836;10.476;2024-03-02T09:52:10;100382.19;;;11.66;68.93
84990;BME280;75307;53.836;10.476;2024-03-02T09:54:11;100391.66;;;11.70;68.86
84990;BME280;75307;53.836;10.476;2024-03-02T09:56:13;100390.53;;;11.76;68.75
84990;BME280;75307;53.836;10.476;2024-03-02T09:58:17;100383.97;;;11.66;69.06
84990;BME280;75307;53.836;10.476;2024-03-02T10:00:18;100400.22;;;11.75;69.03
84990;BME280;75307;53.836;10.476;2024-03-02T10:02:20;100355.13;;;11.63;68.70
84990;BME280;75307;53.836;10.476;2024-03-02T10:04:22;100393.44;;;11.90;68.62
84990;BME280;75307;53.836;10.476;2024-03-02T10:06:25;100389.81;;;11.93;68.13
84990;BME280;75307;53.836;10.476;2024-03-02T10:08:42;100392.25;;;11.97;67.94
84990;BME280;75307;53.836;10.476;2024-03-02T10:10:44;100399.03;;;12.03;68.08
84990;BME280;75307;53.836;10.476;2024-03-02T10:12:46;100382.44;;;12.01;67.83
84990;BME280;75307;53.836;10.476;2024-03-02T10:14:49;100391.00;;;12.25;67.27
84990;BME280;75307;53.836;10.476;2024-03-02T10:16:53;100390.00;;;12.27;66.95
84990;BME280;75307;53.836;10.476;2024-03-02T10:18:55;100388.38;;;12.25;66.49
84990;BME280;75307;53.836;10.476;2024-03-02T10:21:13;100390.06;;;12.26;66.71
84990;BME280;75307;53.836;10.476;2024-03-02T10:23:15;100389.78;;;12.13;66.89
84990;BME280;75307;53.836;10.476;2024-03-02T10:25:30;100388.75;;;11.97;67.33
84990;BME280;75307;53.836;10.476;2024-03-02T10:27:34;100388.97;;;11.92;67.17
84990;BME280;75307;53.836;10.476;2024-03-02T10:29:37;100383.03;;;11.87;67.46
84990;BME280;75307;53.836;10.476;2024-03-02T10:31:43;100388.31;;;11.87;66.82
84990;BME280;75307;53.836;10.476;2024-03-02T10:33:46;100383.63;;;11.94;66.97
84990;BME280;75307;53.836;10.476;2024-03-02T10:35:48;100382.44;;;12.01;66.27
84990;BME280;75307;53.836;10.476;2024-03-02T10:37:52;100384.09;;;12.03;66.34
84990;BME280;75307;53.836;10.476;2024-03-02T10:39:54;100385.06;;;12.01;66.35